Terminal Aerodrome Forecast
Issued by NWS Goodland, KS

Home | Current Version | Previous Version | Text Only | Print | Product List | Glossary On
Versions: 1 2 3 4 5 6 7 8 9 10 11 12
311
FTUS43 KGLD 292320
TAFGLD
TAF
KGLD 292320Z 3000/3024 15010G18KT P6SM SCT200
     FM300400 14010KT P6SM SKC
     FM301500 16012G20KT P6SM SCT200=

USA.gov is the U.S. government's official web portal to all federal, state and local government web resources and services.